Harrod, Ohio
Current Conditions -  °F | °C
As of 6:15 PM on Saturday 20 Dec 2014 (Local Time) from KAOH Reporting Station
Haze Haze  
Wind Chill: 29°   Ceiling: 2800
Heat Index: 33°   Visibility: 6mi
Dew Point: 24°   Wind: 5mph
Humidity: 70%   Direction: 230°SW
Pressure: 30.26"   Gusts: NA
Location:  40.71°N, 83.92°W
Report Text: KAOH 202315Z AUTO 23004KT 6SM HZ OVC028 01/M04 A3026 RMK AO2 T00061044
Loading
Personal Weather Stations






























Interactive Weather Map New forecast layout! Learn more

10-Day Weather Forecast

Advertisements
Track Severe Weather on mobile